createdAt,value
2022-09-23T00:00:07.951Z,1017.38
2022-09-23T00:05:08.173Z,1017.32
2022-09-23T00:10:07.880Z,1017.28
2022-09-23T00:15:08.565Z,1017.34
2022-09-23T00:20:08.301Z,1017.37
2022-09-23T00:25:08.003Z,1017.3
2022-09-23T00:30:07.727Z,1017.34
2022-09-23T00:35:08.430Z,1017.24
2022-09-23T00:40:08.202Z,1017.27
2022-09-23T00:45:07.958Z,1017.21
2022-09-23T00:50:07.666Z,1017.26
2022-09-23T00:55:08.356Z,1017.27
2022-09-23T01:00:08.034Z,1017.26
2022-09-23T01:05:07.734Z,1017.16
2022-09-23T01:10:08.454Z,1017.26
2022-09-23T01:15:08.139Z,1017.15
2022-09-23T01:20:07.838Z,1017.08
2022-09-23T01:25:18.479Z,1017.04
2022-09-23T01:30:12.378Z,1017.08
2022-09-23T01:35:07.846Z,1017.06
2022-09-23T01:40:08.622Z,1017.08
2022-09-23T01:45:08.379Z,1016.94
2022-09-23T01:50:18.057Z,1016.89
2022-09-23T01:55:07.808Z,1016.94
2022-09-23T02:00:08.490Z,1016.87
2022-09-23T02:05:08.166Z,1016.78
2022-09-23T02:10:07.852Z,1016.8
2022-09-23T02:15:08.559Z,1016.77
2022-09-23T02:20:08.303Z,1016.78
2022-09-23T02:25:08.278Z,1016.73
2022-09-23T02:30:07.947Z,1016.73
2022-09-23T02:35:07.666Z,1016.67
2022-09-23T02:40:08.417Z,1016.65
2022-09-23T02:45:08.145Z,1016.65
2022-09-23T02:50:07.845Z,1016.62
2022-09-23T02:55:08.564Z,1016.54
2022-09-23T03:00:08.300Z,1016.58
2022-09-23T03:05:07.995Z,1016.55
2022-09-23T03:10:07.695Z,1016.56
2022-09-23T03:15:08.408Z,1016.44
2022-09-23T03:20:08.151Z,1016.41
2022-09-23T03:25:07.865Z,1016.3
2022-09-23T03:30:08.586Z,1016.36
2022-09-23T03:35:08.283Z,1016.28
2022-09-23T03:40:08.024Z,1016.22
2022-09-23T03:45:07.752Z,1016.27
2022-09-23T03:50:08.468Z,1016.19
2022-09-23T03:55:08.127Z,1016.15
2022-09-23T04:00:07.842Z,1016.07
2022-09-23T04:05:02.668Z,1016.02
2022-09-23T04:10:02.486Z,1015.94
2022-09-23T04:15:02.224Z,1015.88
2022-09-23T04:20:02.070Z,1015.87
2022-09-23T04:25:01.902Z,1015.85
2022-09-23T04:30:01.825Z,1015.79
2022-09-23T04:35:02.578Z,1015.87
2022-09-23T04:40:02.401Z,1015.93
2022-09-23T04:45:02.227Z,1015.91
2022-09-23T04:50:02.069Z,1015.83
2022-09-23T04:55:01.872Z,1015.89
2022-09-23T05:00:02.643Z,1015.92
2022-09-23T05:05:02.466Z,1015.93
2022-09-23T05:10:02.269Z,1015.85
2022-09-23T05:15:02.116Z,1015.91
2022-09-23T05:20:01.952Z,1015.83
2022-09-23T05:25:01.772Z,1015.82
2022-09-23T05:30:02.532Z,1015.8
2022-09-23T05:35:02.453Z,1015.85
2022-09-23T05:40:02.396Z,1015.78
2022-09-23T05:45:02.328Z,1015.86
2022-09-23T05:50:02.256Z,1015.87
2022-09-23T05:55:02.194Z,1015.88
2022-09-23T06:00:02.139Z,1015.83
2022-09-23T06:05:02.053Z,1015.85
2022-09-23T06:10:01.988Z,1015.84
2022-09-23T06:15:01.797Z,1015.82
2022-09-23T06:20:02.648Z,1015.85
2022-09-23T06:25:02.588Z,1015.82
2022-09-23T06:30:02.432Z,1015.94
2022-09-23T06:35:02.241Z,1015.85
2022-09-23T06:40:02.120Z,1015.87
2022-09-23T06:45:01.915Z,1015.96
2022-09-23T06:50:02.765Z,1015.97
2022-09-23T06:55:02.604Z,1015.95
2022-09-23T07:00:02.523Z,1015.98
2022-09-23T07:05:02.341Z,1015.93
2022-09-23T07:10:02.153Z,1015.93
2022-09-23T07:15:02.009Z,1015.92
2022-09-23T07:20:01.819Z,1015.99
2022-09-23T07:25:02.557Z,1015.96
2022-09-23T07:30:02.413Z,1015.9
2022-09-23T07:35:02.241Z,1015.89
2022-09-23T07:40:02.122Z,1015.95
2022-09-23T07:45:01.897Z,1015.87
2022-09-23T07:50:02.627Z,1015.97
2022-09-23T07:55:02.460Z,1015.91
2022-09-23T08:00:02.311Z,1015.92
2022-09-23T08:05:02.126Z,1015.9
2022-09-23T08:10:01.952Z,1015.98
2022-09-23T08:15:01.871Z,1016.04
2022-09-23T08:20:02.828Z,1016.03
2022-09-23T08:25:02.682Z,1015.92
2022-09-23T08:30:02.589Z,1015.95
2022-09-23T08:35:02.508Z,1015.82
2022-09-23T08:40:02.374Z,1015.77
2022-09-23T08:45:02.409Z,1015.77
2022-09-23T08:50:02.360Z,1015.79
2022-09-23T08:55:02.184Z,1015.87
2022-09-23T09:00:01.982Z,1015.9
2022-09-23T09:05:04.861Z,1015.8
2022-09-23T09:10:12.701Z,1015.8
2022-09-23T09:15:02.550Z,1015.78
2022-09-23T09:20:02.413Z,1015.79
2022-09-23T09:25:02.255Z,1015.84
2022-09-23T09:30:02.102Z,1015.84
2022-09-23T09:35:01.918Z,1015.77
2022-09-23T09:40:02.774Z,1015.67
2022-09-23T09:45:02.599Z,1015.68
2022-09-23T09:50:02.326Z,1015.61
2022-09-23T09:55:02.115Z,1015.59
2022-09-23T10:00:01.919Z,1015.53
2022-09-23T10:05:01.746Z,1015.44
2022-09-23T10:10:15.942Z,1015.44
2022-09-23T10:15:01.922Z,1015.41
2022-09-23T10:20:01.717Z,1015.34
2022-09-23T10:25:07.633Z,1015.33
2022-09-23T10:30:12.419Z,1015.4
2022-09-23T10:35:02.247Z,1015.4
2022-09-23T10:40:02.092Z,1015.34
2022-09-23T10:45:01.934Z,1015.38
2022-09-23T10:50:01.726Z,1015.33
2022-09-23T10:55:02.584Z,1015.28
2022-09-23T11:00:02.557Z,1015.3
2022-09-23T11:05:02.532Z,1015.28
2022-09-23T11:10:02.490Z,1015.26
2022-09-23T11:15:02.440Z,1015.24
2022-09-23T11:20:12.459Z,1015.21
2022-09-23T11:25:02.395Z,1015.2
2022-09-23T11:30:02.254Z,1015.16
2022-09-23T11:35:02.117Z,1015.12
2022-09-23T11:40:01.931Z,1014.98
2022-09-23T11:45:01.716Z,1015.0
2022-09-23T11:50:02.464Z,1014.86
2022-09-23T11:55:04.294Z,1014.82
2022-09-23T12:00:01.819Z,1014.91
2022-09-23T12:05:02.920Z,1014.86
2022-09-23T12:10:01.966Z,1014.76
2022-09-23T12:15:01.737Z,1014.78
2022-09-23T12:20:02.551Z,1014.85
2022-09-23T12:25:12.088Z,1014.74
2022-09-23T12:30:01.952Z,1014.71
2022-09-23T12:35:01.767Z,1014.63
2022-09-23T12:40:02.658Z,1014.65
2022-09-23T12:45:02.425Z,1014.51
2022-09-23T12:50:02.274Z,1014.55
2022-09-23T12:55:02.393Z,1014.46
2022-09-23T13:00:02.224Z,1014.43
2022-09-23T13:05:02.059Z,1014.45
2022-09-23T13:10:08.136Z,1014.3
2022-09-23T13:15:02.016Z,1014.29
2022-09-23T13:20:01.893Z,1014.3
2022-09-23T13:25:02.710Z,1014.24
2022-09-23T13:30:02.411Z,1014.25
2022-09-23T13:35:02.166Z,1014.07
2022-09-23T13:40:02.056Z,1014.05
2022-09-23T13:45:01.955Z,1014.04
2022-09-23T13:50:01.870Z,1014.1
2022-09-23T13:55:02.896Z,1014.06
2022-09-23T14:00:02.841Z,1014.04
2022-09-23T14:05:02.790Z,1013.97
2022-09-23T14:10:02.710Z,1014.0
2022-09-23T14:15:02.530Z,1013.89
2022-09-23T14:20:02.369Z,1013.95
2022-09-23T14:25:02.207Z,1013.79
2022-09-23T14:30:02.004Z,1013.77
2022-09-23T14:35:01.765Z,1013.69
2022-09-23T14:40:02.595Z,1013.65
2022-09-23T14:45:02.429Z,1013.66
2022-09-23T14:50:02.282Z,1013.59
2022-09-23T14:55:02.191Z,1013.57
2022-09-23T15:00:02.023Z,1013.51
2022-09-23T15:05:01.870Z,1013.52
2022-09-23T15:10:02.701Z,1013.48
2022-09-23T15:15:02.514Z,1013.42
2022-09-23T15:20:04.494Z,1013.35
2022-09-23T15:25:12.330Z,1013.32
2022-09-23T15:30:02.109Z,1013.39
2022-09-23T15:35:01.950Z,1013.35
2022-09-23T15:40:01.781Z,1013.34
2022-09-23T15:45:02.643Z,1013.3
2022-09-23T15:50:02.463Z,1013.36
2022-09-23T15:55:02.399Z,1013.42
2022-09-23T16:00:02.267Z,1013.32
2022-09-23T16:05:02.041Z,1013.34
2022-09-23T16:10:01.893Z,1013.31
2022-09-23T16:15:03.339Z,1013.3
2022-09-23T16:20:02.342Z,1013.3
2022-09-23T16:25:02.339Z,1013.22
2022-09-23T16:30:02.317Z,1013.24
2022-09-23T16:35:02.345Z,1013.2
2022-09-23T16:40:02.363Z,1013.19
2022-09-23T16:45:02.458Z,1013.16
2022-09-23T16:50:02.427Z,1013.1
2022-09-23T16:55:02.378Z,1013.18
2022-09-23T17:00:02.203Z,1013.25
2022-09-23T17:05:02.057Z,1013.11
2022-09-23T17:10:01.901Z,1013.15
2022-09-23T17:15:02.738Z,1013.23
2022-09-23T17:20:02.577Z,1013.3
2022-09-23T17:25:02.390Z,1013.29
2022-09-23T17:30:02.221Z,1013.22
2022-09-23T17:35:02.046Z,1013.2
2022-09-23T17:40:01.907Z,1013.29
2022-09-23T17:45:02.817Z,1013.2
2022-09-23T17:50:02.721Z,1013.22
2022-09-23T17:55:02.503Z,1013.13
2022-09-23T18:00:02.808Z,1013.18
2022-09-23T18:05:02.545Z,1013.19
2022-09-23T18:10:02.286Z,1013.13
2022-09-23T18:15:02.114Z,1013.17
2022-09-23T18:20:01.961Z,1013.15
2022-09-23T18:25:13.065Z,1013.22
2022-09-23T18:30:02.736Z,1013.15
2022-09-23T18:35:02.593Z,1013.26
2022-09-23T18:40:02.400Z,1013.22
2022-09-23T18:45:02.221Z,1013.19
2022-09-23T18:50:02.074Z,1013.28
2022-09-23T18:55:01.900Z,1013.31
2022-09-23T19:00:02.822Z,1013.35
2022-09-23T19:05:02.752Z,1013.33
2022-09-23T19:10:02.701Z,1013.41
2022-09-23T19:15:02.631Z,1013.38
2022-09-23T19:20:02.565Z,1013.43
2022-09-23T19:25:02.485Z,1013.37
2022-09-23T19:30:02.416Z,1013.29
2022-09-23T19:35:02.365Z,1013.32
2022-09-23T19:40:02.162Z,1013.36
2022-09-23T19:45:01.990Z,1013.34
2022-09-23T19:50:01.737Z,1013.29
2022-09-23T19:55:02.466Z,1013.36
2022-09-23T20:00:02.341Z,1013.35
2022-09-23T20:05:02.149Z,1013.32
2022-09-23T20:10:01.968Z,1013.21
2022-09-23T20:15:01.854Z,1013.14
2022-09-23T20:20:02.640Z,1013.14
2022-09-23T20:25:03.246Z,1013.06
2022-09-23T20:30:02.079Z,1013.04
2022-09-23T20:35:14.721Z,1012.95
2022-09-23T20:40:08.475Z,1012.96
2022-09-23T20:45:08.197Z,1012.9
2022-09-23T20:50:07.889Z,1012.85
2022-09-23T20:55:08.633Z,1012.82
2022-09-23T21:00:08.350Z,1012.94
2022-09-23T21:05:08.072Z,1012.84
2022-09-23T21:10:07.889Z,1012.83
2022-09-23T21:15:08.602Z,1012.7
2022-09-23T21:20:08.381Z,1012.66
2022-09-23T21:25:28.070Z,1012.63
2022-09-23T21:30:08.833Z,1012.64
2022-09-23T21:35:08.561Z,1012.7
2022-09-23T21:40:08.339Z,1012.66
2022-09-23T21:45:08.076Z,1012.58
2022-09-23T21:50:07.774Z,1012.59
2022-09-23T21:55:08.457Z,1012.71
2022-09-23T22:00:08.233Z,1012.71
2022-09-23T22:05:07.911Z,1012.8
2022-09-23T22:10:08.650Z,1012.79
2022-09-23T22:15:08.340Z,1012.8
2022-09-23T22:20:08.131Z,1012.74
2022-09-23T22:25:07.870Z,1012.73
2022-09-23T22:30:08.599Z,1012.82
2022-09-23T22:35:08.443Z,1012.76
2022-09-23T22:40:08.220Z,1012.8
2022-09-23T22:45:08.004Z,1012.8
2022-09-23T22:50:07.708Z,1012.78
2022-09-23T22:55:08.571Z,1012.72
2022-09-23T23:01:00.696Z,1012.77
2022-09-23T23:05:08.588Z,1012.76
2022-09-23T23:10:08.378Z,1012.66
2022-09-23T23:15:08.073Z,1012.61
2022-09-23T23:20:07.782Z,1012.68
2022-09-23T23:25:08.503Z,1012.66
2022-09-23T23:30:08.222Z,1012.64
2022-09-23T23:35:07.946Z,1012.64
2022-09-23T23:40:07.738Z,1012.55
2022-09-23T23:45:08.460Z,1012.63
2022-09-23T23:50:08.210Z,1012.51
2022-09-23T23:55:07.895Z,1012.64
